Terminal Aerodrome Forecast
Issued by NWS Paducah, KY

Home | Current Version | Previous Version | Text Only | Print | Product List | Glossary Off
Versions: 1 2 3 4 5 6 7 8 9 10 11 12 13 14 15 16 17

000
FTUS43 KPAH 261100
TAFPAH
TAF
KPAH 261128Z 2612/2712 11003KT 5SM BR SKC
     FM261500 15005KT P6SM BKN080
     FM261900 16004KT 4SM -RA BR OVC020
     FM270200 29006KT 4SM -RASN BR OVC015
     FM270600 30007KT 5SM BR OVC020=

USA.gov is the U.S. government's official web portal to all federal, state and local government web resources and services.